sensor_id;sensor_type;location;lat;lon;timestamp;pressure;altitude;pressure_sealevel;temperature;humidity
57644;BME280;43474;46.510;6.686;2022-12-07T00:00:28;96473.97;;;1.73;100.00
57644;BME280;43474;46.510;6.686;2022-12-07T00:03:09;96483.06;;;1.77;100.00
57644;BME280;43474;46.510;6.686;2022-12-07T00:05:34;96464.88;;;1.69;100.00
57644;BME280;43474;46.510;6.686;2022-12-07T00:08:00;96475.97;;;1.71;100.00
57644;BME280;43474;46.510;6.686;2022-12-07T00:10:25;96483.88;;;1.77;100.00
57644;BME280;43474;46.510;6.686;2022-12-07T00:12:51;96459.56;;;1.62;100.00
57644;BME280;43474;46.510;6.686;2022-12-07T00:15:17;96472.53;;;1.70;100.00
57644;BME280;43474;46.510;6.686;2022-12-07T00:17:42;96475.16;;;1.70;100.00
57644;BME280;43474;46.510;6.686;2022-12-07T00:20:08;96481.53;;;1.68;100.00
57644;BME280;43474;46.510;6.686;2022-12-07T00:22:34;96438.19;;;1.44;100.00
57644;BME280;43474;46.510;6.686;2022-12-07T00:24:59;96465.69;;;1.54;100.00
57644;BME280;43474;46.510;6.686;2022-12-07T00:27:25;96477.38;;;1.59;100.00
57644;BME280;43474;46.510;6.686;2022-12-07T00:29:52;96489.22;;;1.69;100.00
57644;BME280;43474;46.510;6.686;2022-12-07T00:32:17;96477.38;;;1.59;100.00
57644;BME280;43474;46.510;6.686;2022-12-07T00:34:43;96455.13;;;1.48;100.00
57644;BME280;43474;46.510;6.686;2022-12-07T00:37:08;96487.13;;;1.65;100.00
57644;BME280;43474;46.510;6.686;2022-12-07T00:39:34;96466.31;;;1.57;100.00
57644;BME280;43474;46.510;6.686;2022-12-07T00:42:00;96464.50;;;1.57;100.00
57644;BME280;43474;46.510;6.686;2022-12-07T00:44:26;96476.84;;;1.63;100.00
57644;BME280;43474;46.510;6.686;2022-12-07T00:46:51;96476.78;;;1.71;100.00
57644;BME280;43474;46.510;6.686;2022-12-07T00:49:17;96472.53;;;1.70;100.00
57644;BME280;43474;46.510;6.686;2022-12-07T00:51:42;96462.97;;;1.63;100.00
57644;BME280;43474;46.510;6.686;2022-12-07T00:54:08;96462.50;;;1.59;100.00
57644;BME280;43474;46.510;6.686;2022-12-07T00:56:34;96458.72;;;1.47;100.00
57644;BME280;43474;46.510;6.686;2022-12-07T00:59:01;96469.25;;;1.53;100.00
57644;BME280;43474;46.510;6.686;2022-12-07T01:01:30;96478.03;;;1.61;100.00
57644;BME280;43474;46.510;6.686;2022-12-07T01:03:56;96471.72;;;1.55;100.00
57644;BME280;43474;46.510;6.686;2022-12-07T01:06:23;96467.13;;;1.57;100.00
57644;BME280;43474;46.510;6.686;2022-12-07T01:08:49;96443.66;;;1.34;100.00
57644;BME280;43474;46.510;6.686;2022-12-07T01:11:18;96468.13;;;1.56;100.00
57644;BME280;43474;46.510;6.686;2022-12-07T01:13:44;96468.66;;;1.51;100.00
57644;BME280;43474;46.510;6.686;2022-12-07T01:16:12;96475.13;;;1.55;100.00
57644;BME280;43474;46.510;6.686;2022-12-07T01:18:38;96431.97;;;1.30;100.00
57644;BME280;43474;46.510;6.686;2022-12-07T01:21:11;96462.63;;;1.51;100.00
57644;BME280;43474;46.510;6.686;2022-12-07T01:23:38;96463.16;;;1.46;100.00
57644;BME280;43474;46.510;6.686;2022-12-07T01:26:06;96481.25;;;1.48;100.00
57644;BME280;43474;46.510;6.686;2022-12-07T01:28:33;96478.81;;;1.46;100.00
57644;BME280;43474;46.510;6.686;2022-12-07T01:31:03;96488.72;;;1.51;100.00
57644;BME280;43474;46.510;6.686;2022-12-07T01:33:33;96481.63;;;1.45;100.00
57644;BME280;43474;46.510;6.686;2022-12-07T01:38:30;96455.03;;;1.41;100.00
57644;BME280;43474;46.510;6.686;2022-12-07T01:40:56;96447.66;;;1.45;100.00
57644;BME280;43474;46.510;6.686;2022-12-07T01:43:23;96469.91;;;1.55;100.00
57644;BME280;43474;46.510;6.686;2022-12-07T01:45:49;96472.69;;;1.54;100.00
57644;BME280;43474;46.510;6.686;2022-12-07T01:48:17;96465.22;;;1.51;100.00
57644;BME280;43474;46.510;6.686;2022-12-07T01:50:45;96474.34;;;1.55;100.00
57644;BME280;43474;46.510;6.686;2022-12-07T01:53:14;96472.34;;;1.57;100.00
57644;BME280;43474;46.510;6.686;2022-12-07T01:55:42;96467.75;;;1.59;100.00
57644;BME280;43474;46.510;6.686;2022-12-07T01:58:10;96439.38;;;1.41;100.00
57644;BME280;43474;46.510;6.686;2022-12-07T02:00:37;96472.16;;;1.59;100.00
57644;BME280;43474;46.510;6.686;2022-12-07T02:05:35;96469.91;;;1.55;100.00
57644;BME280;43474;46.510;6.686;2022-12-07T02:08:02;96453.31;;;1.48;100.00
57644;BME280;43474;46.510;6.686;2022-12-07T02:10:30;96467.94;;;1.58;100.00
57644;BME280;43474;46.510;6.686;2022-12-07T02:13:00;96470.25;;;1.52;100.00
57644;BME280;43474;46.510;6.686;2022-12-07T02:15:36;96461.34;;;1.47;100.00
57644;BME280;43474;46.510;6.686;2022-12-07T02:18:18;96471.34;;;1.58;100.00
57644;BME280;43474;46.510;6.686;2022-12-07T02:21:12;96480.78;;;1.59;100.00
57644;BME280;43474;46.510;6.686;2022-12-07T02:32:00;96482.31;;;1.53;100.00
57644;BME280;43474;46.510;6.686;2022-12-07T02:37:01;96476.75;;;1.57;100.00
57644;BME280;43474;46.510;6.686;2022-12-07T02:39:37;96469.66;;;1.50;100.00
57644;BME280;43474;46.510;6.686;2022-12-07T02:42:12;96476.81;;;1.48;100.00
57644;BME280;43474;46.510;6.686;2022-12-07T02:44:40;96463.41;;;1.51;100.00
57644;BME280;43474;46.510;6.686;2022-12-07T02:47:09;96484.13;;;1.53;100.00
57644;BME280;43474;46.510;6.686;2022-12-07T02:49:38;96471.78;;;1.47;100.00
57644;BME280;43474;46.510;6.686;2022-12-07T02:52:05;96464.50;;;1.57;100.00
57644;BME280;43474;46.510;6.686;2022-12-07T02:54:30;96440.00;;;1.43;100.00
57644;BME280;43474;46.510;6.686;2022-12-07T02:57:03;96441.44;;;1.46;100.00
57644;BME280;43474;46.510;6.686;2022-12-07T03:05:15;96462.44;;;1.52;100.00
57644;BME280;43474;46.510;6.686;2022-12-07T03:16:20;96471.25;;;1.51;100.00
57644;BME280;43474;46.510;6.686;2022-12-07T03:18:59;96469.25;;;1.39;100.00
57644;BME280;43474;46.510;6.686;2022-12-07T03:21:31;96444.94;;;1.38;100.00
57644;BME280;43474;46.510;6.686;2022-12-07T03:24:00;96451.69;;;1.33;100.00
57644;BME280;43474;46.510;6.686;2022-12-07T03:26:32;96462.59;;;1.36;100.00
57644;BME280;43474;46.510;6.686;2022-12-07T03:29:02;96463.41;;;1.37;100.00
57644;BME280;43474;46.510;6.686;2022-12-07T03:31:33;96465.81;;;1.38;100.00
57644;BME280;43474;46.510;6.686;2022-12-07T03:34:11;96448.97;;;1.26;100.00
57644;BME280;43474;46.510;6.686;2022-12-07T03:37:04;96451.22;;;1.29;100.00
57644;BME280;43474;46.510;6.686;2022-12-07T03:39:41;96437.00;;;1.17;100.00
57644;BME280;43474;46.510;6.686;2022-12-07T03:42:12;96433.19;;;1.05;100.00
57644;BME280;43474;46.510;6.686;2022-12-07T03:44:39;96453.66;;;1.16;100.00
57644;BME280;43474;46.510;6.686;2022-12-07T03:47:25;96473.09;;;1.28;100.00
57644;BME280;43474;46.510;6.686;2022-12-07T03:50:06;96472.09;;;1.29;100.00
57644;BME280;43474;46.510;6.686;2022-12-07T03:52:54;96457.25;;;1.15;100.00
57644;BME280;43474;46.510;6.686;2022-12-07T03:55:35;96456.88;;;1.18;100.00
57644;BME280;43474;46.510;6.686;2022-12-07T03:58:07;96451.19;;;1.14;100.00
57644;BME280;43474;46.510;6.686;2022-12-07T04:00:34;96423.44;;;0.98;100.00
57644;BME280;43474;46.510;6.686;2022-12-07T04:03:00;96441.66;;;1.07;100.00
57644;BME280;43474;46.510;6.686;2022-12-07T04:05:25;96431.94;;;1.00;100.00
57644;BME280;43474;46.510;6.686;2022-12-07T04:07:51;96440.19;;;1.04;100.00
57644;BME280;43474;46.510;6.686;2022-12-07T04:10:17;96447.22;;;1.03;100.00
57644;BME280;43474;46.510;6.686;2022-12-07T04:12:43;96435.41;;;0.93;100.00
57644;BME280;43474;46.510;6.686;2022-12-07T04:15:08;96444.97;;;1.00;100.00
57644;BME280;43474;46.510;6.686;2022-12-07T04:17:34;96434.94;;;0.89;100.00
57644;BME280;43474;46.510;6.686;2022-12-07T04:20:00;96432.78;;;0.93;100.00
57644;BME280;43474;46.510;6.686;2022-12-07T04:22:26;96440.28;;;0.96;100.00
57644;BME280;43474;46.510;6.686;2022-12-07T04:24:51;96449.53;;;0.98;100.00
57644;BME280;43474;46.510;6.686;2022-12-07T04:27:17;96421.16;;;0.81;100.00
57644;BME280;43474;46.510;6.686;2022-12-07T04:29:42;96383.75;;;0.50;100.00
57644;BME280;43474;46.510;6.686;2022-12-07T04:32:08;96438.00;;;0.93;100.00
57644;BME280;43474;46.510;6.686;2022-12-07T04:34:33;96417.38;;;0.83;100.00
57644;BME280;43474;46.510;6.686;2022-12-07T04:36:59;96367.69;;;0.62;100.00
57644;BME280;43474;46.510;6.686;2022-12-07T04:39:27;96432.53;;;1.02;100.00
57644;BME280;43474;46.510;6.686;2022-12-07T04:41:54;96434.25;;;0.95;100.00
57644;BME280;43474;46.510;6.686;2022-12-07T04:44:21;96420.03;;;0.98;100.00
57644;BME280;43474;46.510;6.686;2022-12-07T04:46:47;96437.78;;;1.17;100.00
57644;BME280;43474;46.510;6.686;2022-12-07T04:49:13;96431.97;;;1.15;100.00
57644;BME280;43474;46.510;6.686;2022-12-07T04:51:40;96428.69;;;1.13;100.00
57644;BME280;43474;46.510;6.686;2022-12-07T04:54:05;96429.69;;;1.12;100.00
57644;BME280;43474;46.510;6.686;2022-12-07T04:56:32;96435.72;;;1.13;100.00
57644;BME280;43474;46.510;6.686;2022-12-07T04:58:57;96439.50;;;1.10;100.00
57644;BME280;43474;46.510;6.686;2022-12-07T05:01:24;96415.91;;;1.03;100.00
57644;BME280;43474;46.510;6.686;2022-12-07T05:03:50;96438.41;;;1.19;100.00
57644;BME280;43474;46.510;6.686;2022-12-07T05:06:16;96406.63;;;1.01;100.00
57644;BME280;43474;46.510;6.686;2022-12-07T05:08:41;96432.38;;;1.19;100.00
57644;BME280;43474;46.510;6.686;2022-12-07T05:11:08;96439.69;;;1.23;100.00
57644;BME280;43474;46.510;6.686;2022-12-07T05:13:35;96427.69;;;1.14;100.00
57644;BME280;43474;46.510;6.686;2022-12-07T05:16:02;96440.88;;;1.21;100.00
57644;BME280;43474;46.510;6.686;2022-12-07T05:18:27;96426.09;;;1.13;100.00
57644;BME280;43474;46.510;6.686;2022-12-07T05:20:53;96419.97;;;1.06;100.00
57644;BME280;43474;46.510;6.686;2022-12-07T05:23:19;96434.84;;;1.20;100.00
57644;BME280;43474;46.510;6.686;2022-12-07T05:25:46;96418.44;;;1.12;100.00
57644;BME280;43474;46.510;6.686;2022-12-07T05:28:11;96423.94;;;1.17;100.00
57644;BME280;43474;46.510;6.686;2022-12-07T05:30:37;96433.66;;;1.23;100.00
57644;BME280;43474;46.510;6.686;2022-12-07T05:33:02;96419.00;;;1.22;100.00
57644;BME280;43474;46.510;6.686;2022-12-07T05:35:28;96417.47;;;1.27;100.00
57644;BME280;43474;46.510;6.686;2022-12-07T05:37:55;96421.97;;;1.34;100.00
57644;BME280;43474;46.510;6.686;2022-12-07T05:40:20;96409.28;;;1.31;100.00
57644;BME280;43474;46.510;6.686;2022-12-07T05:42:46;96399.72;;;1.23;100.00
57644;BME280;43474;46.510;6.686;2022-12-07T05:45:12;96387.69;;;1.22;100.00
57644;BME280;43474;46.510;6.686;2022-12-07T05:47:37;96412.00;;;1.37;100.00
57644;BME280;43474;46.510;6.686;2022-12-07T05:50:05;96389.66;;;1.20;100.00
57644;BME280;43474;46.510;6.686;2022-12-07T05:52:31;96421.44;;;1.38;100.00
57644;BME280;43474;46.510;6.686;2022-12-07T05:54:57;96414.69;;;1.29;100.00
57644;BME280;43474;46.510;6.686;2022-12-07T05:57:22;96411.97;;;1.22;100.00
57644;BME280;43474;46.510;6.686;2022-12-07T05:59:48;96394.06;;;1.19;100.00
57644;BME280;43474;46.510;6.686;2022-12-07T06:02:15;96413.72;;;1.30;100.00
57644;BME280;43474;46.510;6.686;2022-12-07T06:04:43;96412.50;;;1.18;100.00
57644;BME280;43474;46.510;6.686;2022-12-07T06:07:10;96430.81;;;1.33;100.00
57644;BME280;43474;46.510;6.686;2022-12-07T06:09:37;96425.03;;;1.22;100.00
57644;BME280;43474;46.510;6.686;2022-12-07T06:12:03;96406.19;;;1.12;100.00
57644;BME280;43474;46.510;6.686;2022-12-07T06:14:47;96397.91;;;1.09;100.00
57644;BME280;43474;46.510;6.686;2022-12-07T06:17:13;96423.06;;;1.24;100.00
57644;BME280;43474;46.510;6.686;2022-12-07T06:19:40;96404.06;;;1.16;100.00
57644;BME280;43474;46.510;6.686;2022-12-07T06:22:06;96404.41;;;1.13;100.00
57644;BME280;43474;46.510;6.686;2022-12-07T06:24:32;96388.19;;;1.02;100.00
57644;BME280;43474;46.510;6.686;2022-12-07T06:26:58;96432.66;;;1.24;100.00
57644;BME280;43474;46.510;6.686;2022-12-07T06:29:24;96430.72;;;1.26;100.00
57644;BME280;43474;46.510;6.686;2022-12-07T06:31:50;96400.19;;;1.12;100.00
57644;BME280;43474;46.510;6.686;2022-12-07T06:34:18;96424.69;;;1.25;100.00
57644;BME280;43474;46.510;6.686;2022-12-07T06:36:44;96401.59;;;1.14;100.00
57644;BME280;43474;46.510;6.686;2022-12-07T06:39:10;96390.06;;;1.09;100.00
57644;BME280;43474;46.510;6.686;2022-12-07T06:41:39;96406.94;;;1.21;100.00
57644;BME280;43474;46.510;6.686;2022-12-07T06:44:06;96415.94;;;1.18;100.00
57644;BME280;43474;46.510;6.686;2022-12-07T06:46:32;96398.91;;;1.08;100.00
57644;BME280;43474;46.510;6.686;2022-12-07T06:48:58;96375.56;;;0.91;100.00
57644;BME280;43474;46.510;6.686;2022-12-07T06:51:23;96398.72;;;1.09;100.00
57644;BME280;43474;46.510;6.686;2022-12-07T06:53:49;96419.34;;;1.19;100.00
57644;BME280;43474;46.510;6.686;2022-12-07T06:56:15;96418.63;;;1.10;100.00
57644;BME280;43474;46.510;6.686;2022-12-07T06:58:41;96415.66;;;1.13;100.00
57644;BME280;43474;46.510;6.686;2022-12-07T07:01:11;96417.53;;;1.19;100.00
57644;BME280;43474;46.510;6.686;2022-12-07T07:03:38;96429.78;;;1.19;100.00
57644;BME280;43474;46.510;6.686;2022-12-07T07:06:04;96422.03;;;1.11;100.00
57644;BME280;43474;46.510;6.686;2022-12-07T07:08:30;96412.88;;;1.15;100.00
57644;BME280;43474;46.510;6.686;2022-12-07T07:10:56;96410.91;;;1.17;100.00
57644;BME280;43474;46.510;6.686;2022-12-07T07:13:21;96418.19;;;1.21;100.00
57644;BME280;43474;46.510;6.686;2022-12-07T07:15:47;96419.47;;;1.25;100.00
57644;BME280;43474;46.510;6.686;2022-12-07T07:18:12;96408.75;;;1.20;100.00
57644;BME280;43474;46.510;6.686;2022-12-07T07:20:38;96390.63;;;1.04;100.00
57644;BME280;43474;46.510;6.686;2022-12-07T07:23:04;96426.13;;;1.28;100.00
57644;BME280;43474;46.510;6.686;2022-12-07T07:25:31;96430.00;;;1.32;100.00
57644;BME280;43474;46.510;6.686;2022-12-07T07:27:57;96424.31;;;1.28;100.00
57644;BME280;43474;46.510;6.686;2022-12-07T07:30:22;96422.44;;;1.37;100.00
57644;BME280;43474;46.510;6.686;2022-12-07T07:32:48;96427.66;;;1.37;100.00
57644;BME280;43474;46.510;6.686;2022-12-07T07:35:14;96431.34;;;1.43;100.00
57644;BME280;43474;46.510;6.686;2022-12-07T07:37:40;96427.13;;;1.42;100.00
57644;BME280;43474;46.510;6.686;2022-12-07T07:40:07;96405.22;;;1.28;100.00
57644;BME280;43474;46.510;6.686;2022-12-07T07:42:33;96418.69;;;1.40;100.00
57644;BME280;43474;46.510;6.686;2022-12-07T07:44:59;96429.56;;;1.58;100.00
57644;BME280;43474;46.510;6.686;2022-12-07T07:47:24;96426.88;;;1.66;100.00
57644;BME280;43474;46.510;6.686;2022-12-07T07:49:50;96437.84;;;1.62;100.00
57644;BME280;43474;46.510;6.686;2022-12-07T07:52:18;96431.38;;;1.58;100.00
57644;BME280;43474;46.510;6.686;2022-12-07T07:54:44;96431.38;;;1.58;100.00
57644;BME280;43474;46.510;6.686;2022-12-07T07:57:10;96436.31;;;1.52;100.00
57644;BME280;43474;46.510;6.686;2022-12-07T07:59:35;96440.72;;;1.52;100.00
57644;BME280;43474;46.510;6.686;2022-12-07T08:02:01;96391.75;;;1.24;100.00
57644;BME280;43474;46.510;6.686;2022-12-07T08:04:26;96435.50;;;1.52;100.00
57644;BME280;43474;46.510;6.686;2022-12-07T08:06:52;96438.38;;;1.57;100.00
57644;BME280;43474;46.510;6.686;2022-12-07T08:09:17;96421.56;;;1.45;100.00
57644;BME280;43474;46.510;6.686;2022-12-07T08:11:43;96432.72;;;1.53;100.00
57644;BME280;43474;46.510;6.686;2022-12-07T08:14:10;96452.38;;;1.64;100.00
57644;BME280;43474;46.510;6.686;2022-12-07T08:16:37;96440.53;;;1.68;100.00
57644;BME280;43474;46.510;6.686;2022-12-07T08:19:04;96436.78;;;1.56;100.00
57644;BME280;43474;46.510;6.686;2022-12-07T08:21:30;96442.88;;;1.63;100.00
57644;BME280;43474;46.510;6.686;2022-12-07T08:23:59;96445.44;;;1.71;100.00
57644;BME280;43474;46.510;6.686;2022-12-07T08:26:25;96391.38;;;1.42;100.00
57644;BME280;43474;46.510;6.686;2022-12-07T08:28:50;96394.53;;;1.38;100.00
57644;BME280;43474;46.510;6.686;2022-12-07T08:31:17;96465.97;;;1.74;100.00
57644;BME280;43474;46.510;6.686;2022-12-07T08:33:45;96407.50;;;1.46;100.00
57644;BME280;43474;46.510;6.686;2022-12-07T08:36:12;96377.78;;;1.32;100.00
57644;BME280;43474;46.510;6.686;2022-12-07T08:38:39;96407.41;;;1.54;100.00
57644;BME280;43474;46.510;6.686;2022-12-07T08:41:05;96396.53;;;1.65;100.00
57644;BME280;43474;46.510;6.686;2022-12-07T08:43:33;96404.78;;;1.69;100.00
57644;BME280;43474;46.510;6.686;2022-12-07T08:46:24;96439.00;;;2.03;100.00
57644;BME280;43474;46.510;6.686;2022-12-07T08:48:58;96442.50;;;2.25;100.00
57644;BME280;43474;46.510;6.686;2022-12-07T08:51:27;96460.97;;;2.60;100.00
57644;BME280;43474;46.510;6.686;2022-12-07T08:53:58;96460.47;;;2.93;100.00
57644;BME280;43474;46.510;6.686;2022-12-07T08:56:29;96383.59;;;2.72;100.00
57644;BME280;43474;46.510;6.686;2022-12-07T08:58:55;96335.25;;;2.90;100.00
57644;BME280;43474;46.510;6.686;2022-12-07T09:01:31;96398.44;;;3.43;100.00
57644;BME280;43474;46.510;6.686;2022-12-07T09:04:04;96412.06;;;3.31;100.00
57644;BME280;43474;46.510;6.686;2022-12-07T09:06:47;96391.44;;;2.72;100.00
57644;BME280;43474;46.510;6.686;2022-12-07T09:09:23;96358.19;;;2.66;100.00
57644;BME280;43474;46.510;6.686;2022-12-07T09:11:48;96418.03;;;2.97;100.00
57644;BME280;43474;46.510;6.686;2022-12-07T09:14:14;96460.94;;;2.96;100.00
57644;BME280;43474;46.510;6.686;2022-12-07T09:16:54;96392.00;;;2.25;100.00
57644;BME280;43474;46.510;6.686;2022-12-07T09:19:36;96416.47;;;2.02;100.00
57644;BME280;43474;46.510;6.686;2022-12-07T09:22:08;96369.06;;;1.69;100.00
57644;BME280;43474;46.510;6.686;2022-12-07T09:24:36;96388.59;;;2.24;100.00
57644;BME280;43474;46.510;6.686;2022-12-07T09:27:07;96459.00;;;3.89;100.00
57644;BME280;43474;46.510;6.686;2022-12-07T09:29:44;96406.03;;;3.66;100.00
57644;BME280;43474;46.510;6.686;2022-12-07T09:32:20;96400.09;;;3.22;100.00
57644;BME280;43474;46.510;6.686;2022-12-07T09:34:46;96386.13;;;3.08;100.00
57644;BME280;43474;46.510;6.686;2022-12-07T09:37:20;96483.78;;;3.86;100.00
57644;BME280;43474;46.510;6.686;2022-12-07T09:39:56;96387.53;;;3.74;100.00
57644;BME280;43474;46.510;6.686;2022-12-07T09:42:33;96480.31;;;4.14;100.00
57644;BME280;43474;46.510;6.686;2022-12-07T09:45:33;96395.13;;;3.62;100.00
57644;BME280;43474;46.510;6.686;2022-12-07T09:48:21;96414.16;;;4.19;100.00
57644;BME280;43474;46.510;6.686;2022-12-07T09:51:15;96380.44;;;4.09;100.00
57644;BME280;43474;46.510;6.686;2022-12-07T09:57:15;96396.84;;;4.31;100.00
57644;BME280;43474;46.510;6.686;2022-12-07T10:00:25;96348.53;;;3.57;100.00
57644;BME280;43474;46.510;6.686;2022-12-07T10:03:30;96358.91;;;3.72;100.00
57644;BME280;43474;46.510;6.686;2022-12-07T10:06:29;96413.94;;;4.20;100.00
57644;BME280;43474;46.510;6.686;2022-12-07T10:12:16;96370.63;;;5.50;100.00
57644;BME280;43474;46.510;6.686;2022-12-07T10:15:08;96363.59;;;4.71;100.00
57644;BME280;43474;46.510;6.686;2022-12-07T10:17:55;96380.16;;;4.58;100.00
57644;BME280;43474;46.510;6.686;2022-12-07T10:20:35;96380.38;;;4.70;100.00
57644;BME280;43474;46.510;6.686;2022-12-07T10:23:14;96358.72;;;4.41;100.00
57644;BME280;43474;46.510;6.686;2022-12-07T10:25:39;96374.91;;;4.65;100.00
57644;BME280;43474;46.510;6.686;2022-12-07T10:28:15;96433.50;;;5.12;100.00
57644;BME280;43474;46.510;6.686;2022-12-07T10:31:03;96437.78;;;5.13;100.00
57644;BME280;43474;46.510;6.686;2022-12-07T10:34:01;96429.66;;;5.01;100.00
57644;BME280;43474;46.510;6.686;2022-12-07T10:36:34;96437.56;;;5.08;100.00
57644;BME280;43474;46.510;6.686;2022-12-07T10:39:13;96436.53;;;4.89;100.00
57644;BME280;43474;46.510;6.686;2022-12-07T10:42:02;96413.53;;;5.24;100.00
57644;BME280;43474;46.510;6.686;2022-12-07T10:44:30;96423.63;;;5.47;100.00
57644;BME280;43474;46.510;6.686;2022-12-07T10:47:03;96417.38;;;5.08;100.00
57644;BME280;43474;46.510;6.686;2022-12-07T10:57:43;96418.66;;;4.38;100.00
57644;BME280;43474;46.510;6.686;2022-12-07T11:08:20;96413.25;;;4.59;100.00
57644;BME280;43474;46.510;6.686;2022-12-07T11:11:09;96409.63;;;4.60;100.00
57644;BME280;43474;46.510;6.686;2022-12-07T11:13:51;96401.34;;;4.57;100.00
57644;BME280;43474;46.510;6.686;2022-12-07T11:22:02;96398.84;;;4.29;100.00
57644;BME280;43474;46.510;6.686;2022-12-07T11:27:06;96381.09;;;4.24;100.00
57644;BME280;43474;46.510;6.686;2022-12-07T11:29:47;96374.41;;;4.22;100.00
57644;BME280;43474;46.510;6.686;2022-12-07T11:37:30;96368.13;;;4.03;100.00
57644;BME280;43474;46.510;6.686;2022-12-07T11:40:18;96364.06;;;4.00;100.00
57644;BME280;43474;46.510;6.686;2022-12-07T11:43:25;96355.22;;;4.08;100.00
57644;BME280;43474;46.510;6.686;2022-12-07T11:45:59;96366.38;;;4.23;100.00
57644;BME280;43474;46.510;6.686;2022-12-07T11:48:52;96353.19;;;4.10;100.00
57644;BME280;43474;46.510;6.686;2022-12-07T11:51:21;96362.03;;;4.02;100.00
57644;BME280;43474;46.510;6.686;2022-12-07T11:53:55;96359.03;;;4.12;100.00
57644;BME280;43474;46.510;6.686;2022-12-07T11:56:27;96357.22;;;4.12;100.00
57644;BME280;43474;46.510;6.686;2022-12-07T11:59:01;96350.84;;;4.28;100.00
57644;BME280;43474;46.510;6.686;2022-12-07T12:06:41;96351.22;;;4.32;100.00
57644;BME280;43474;46.510;6.686;2022-12-07T12:20:20;96338.91;;;4.26;100.00
57644;BME280;43474;46.510;6.686;2022-12-07T12:23:11;96314.72;;;4.24;100.00
57644;BME280;43474;46.510;6.686;2022-12-07T12:25:59;96303.00;;;4.13;100.00
57644;BME280;43474;46.510;6.686;2022-12-07T12:31:31;96319.97;;;4.30;100.00
57644;BME280;43474;46.510;6.686;2022-12-07T12:34:03;96313.09;;;4.29;100.00
57644;BME280;43474;46.510;6.686;2022-12-07T12:39:13;96321.19;;;4.28;100.00
57644;BME280;43474;46.510;6.686;2022-12-07T12:51:55;96307.19;;;3.94;100.00
57644;BME280;43474;46.510;6.686;2022-12-07T12:54:26;96298.88;;;3.91;100.00
57644;BME280;43474;46.510;6.686;2022-12-07T12:59:57;96311.19;;;3.97;100.00
57644;BME280;43474;46.510;6.686;2022-12-07T13:02:34;96301.69;;;3.82;100.00
57644;BME280;43474;46.510;6.686;2022-12-07T13:34:01;96263.38;;;3.81;100.00
57644;BME280;43474;46.510;6.686;2022-12-07T13:36:31;96258.75;;;3.83;100.00
57644;BME280;43474;46.510;6.686;2022-12-07T13:39:16;96272.47;;;3.85;100.00
57644;BME280;43474;46.510;6.686;2022-12-07T13:41:43;96255.72;;;3.86;100.00
57644;BME280;43474;46.510;6.686;2022-12-07T13:44:11;96259.91;;;3.68;100.00
57644;BME280;43474;46.510;6.686;2022-12-07T13:46:44;96268.00;;;3.79;100.00
57644;BME280;43474;46.510;6.686;2022-12-07T13:49:24;96256.66;;;3.59;100.00
57644;BME280;43474;46.510;6.686;2022-12-07T13:51:51;96277.25;;;3.69;100.00
57644;BME280;43474;46.510;6.686;2022-12-07T13:54:18;96252.81;;;3.61;100.00
57644;BME280;43474;46.510;6.686;2022-12-07T13:56:49;96272.03;;;3.69;100.00
57644;BME280;43474;46.510;6.686;2022-12-07T13:59:18;96267.75;;;3.68;100.00
57644;BME280;43474;46.510;6.686;2022-12-07T14:01:46;96257.25;;;3.54;100.00
57644;BME280;43474;46.510;6.686;2022-12-07T14:06:57;96252.81;;;3.55;100.00
57644;BME280;43474;46.510;6.686;2022-12-07T14:09:25;96247.78;;;3.53;100.00
57644;BME280;43474;46.510;6.686;2022-12-07T14:11:53;96216.81;;;3.22;100.00
57644;BME280;43474;46.510;6.686;2022-12-07T14:14:22;96250.63;;;3.58;100.00
57644;BME280;43474;46.510;6.686;2022-12-07T14:16:59;96254.50;;;3.76;100.00
57644;BME280;43474;46.510;6.686;2022-12-07T14:19:46;96256.31;;;3.75;100.00
57644;BME280;43474;46.510;6.686;2022-12-07T14:22:33;96248.00;;;3.58;100.00
57644;BME280;43474;46.510;6.686;2022-12-07T14:27:38;96252.38;;;3.51;100.00
57644;BME280;43474;46.510;6.686;2022-12-07T14:30:05;96241.47;;;3.34;100.00
57644;BME280;43474;46.510;6.686;2022-12-07T14:32:32;96237.84;;;3.42;100.00
57644;BME280;43474;46.510;6.686;2022-12-07T14:35:08;96211.19;;;3.25;100.00
57644;BME280;43474;46.510;6.686;2022-12-07T14:37:36;96251.16;;;3.41;100.00
57644;BME280;43474;46.510;6.686;2022-12-07T14:40:03;96223.94;;;3.35;100.00
57644;BME280;43474;46.510;6.686;2022-12-07T14:42:29;96245.09;;;3.40;100.00
57644;BME280;43474;46.510;6.686;2022-12-07T14:44:56;96250.78;;;3.44;100.00
57644;BME280;43474;46.510;6.686;2022-12-07T14:47:23;96241.38;;;3.21;100.00
57644;BME280;43474;46.510;6.686;2022-12-07T14:49:49;96246.63;;;3.21;100.00
57644;BME280;43474;46.510;6.686;2022-12-07T14:52:19;96243.56;;;3.18;100.00
57644;BME280;43474;46.510;6.686;2022-12-07T14:54:46;96262.78;;;3.31;100.00
57644;BME280;43474;46.510;6.686;2022-12-07T14:57:11;96251.88;;;3.28;100.00
57644;BME280;43474;46.510;6.686;2022-12-07T14:59:37;96241.00;;;3.24;100.00
57644;BME280;43474;46.510;6.686;2022-12-07T15:02:04;96231.53;;;3.23;100.00
57644;BME280;43474;46.510;6.686;2022-12-07T15:04:30;96232.06;;;3.12;100.00
57644;BME280;43474;46.510;6.686;2022-12-07T15:06:57;96261.09;;;3.17;100.00
57644;BME280;43474;46.510;6.686;2022-12-07T15:09:23;96248.78;;;3.11;100.00
57644;BME280;43474;46.510;6.686;2022-12-07T15:11:48;96236.84;;;3.02;100.00
57644;BME280;43474;46.510;6.686;2022-12-07T15:14:14;96247.72;;;2.99;100.00
57644;BME280;43474;46.510;6.686;2022-12-07T15:16:41;96256.41;;;3.06;100.00
57644;BME280;43474;46.510;6.686;2022-12-07T15:19:19;96232.97;;;2.91;100.00
57644;BME280;43474;46.510;6.686;2022-12-07T15:21:48;96261.06;;;3.10;100.00
57644;BME280;43474;46.510;6.686;2022-12-07T15:24:14;96249.56;;;3.05;100.00
57644;BME280;43474;46.510;6.686;2022-12-07T15:26:40;96250.94;;;3.01;100.00
57644;BME280;43474;46.510;6.686;2022-12-07T15:29:06;96242.72;;;3.04;100.00
57644;BME280;43474;46.510;6.686;2022-12-07T15:31:32;96250.41;;;3.12;100.00